createdAt,value
2018-09-30T00:01:48.432Z,66.32
2018-09-30T00:04:16.459Z,66.83
2018-09-30T00:06:44.479Z,66.84
2018-09-30T00:09:12.496Z,67.10
2018-09-30T00:11:40.515Z,67.16
2018-09-30T00:14:08.708Z,67.18
2018-09-30T00:16:36.724Z,67.32
2018-09-30T00:19:04.992Z,67.27
2018-09-30T00:21:33.007Z,67.37
2018-09-30T00:24:06.404Z,66.96
2018-09-30T00:26:39.663Z,67.12
2018-09-30T00:29:07.682Z,66.75
2018-09-30T00:31:35.754Z,67.12
2018-09-30T00:34:09.287Z,67.21
2018-09-30T00:36:37.915Z,66.76
2018-09-30T00:39:06.520Z,67.21
2018-09-30T00:41:34.536Z,67.00
2018-09-30T00:44:02.543Z,66.79
2018-09-30T00:46:30.552Z,66.91
2018-09-30T00:48:58.564Z,66.61
2018-09-30T00:51:26.571Z,66.77
2018-09-30T00:53:54.585Z,66.56
2018-09-30T00:56:22.755Z,66.58
2018-09-30T00:58:50.772Z,66.42
2018-09-30T01:01:18.774Z,66.46
2018-09-30T01:03:46.799Z,66.68
2018-09-30T01:06:14.827Z,66.59
2018-09-30T01:08:43.735Z,66.57
2018-09-30T01:11:12.381Z,66.85
2018-09-30T01:13:40.556Z,66.73
2018-09-30T01:16:08.896Z,67.20
2018-09-30T01:18:36.905Z,67.26
2018-09-30T01:21:05.047Z,67.43
2018-09-30T01:23:33.071Z,67.04
2018-09-30T01:26:01.090Z,67.44
2018-09-30T01:28:29.109Z,67.53
2018-09-30T01:30:57.119Z,67.38
2018-09-30T01:33:25.123Z,67.54
2018-09-30T01:35:53.144Z,67.38
2018-09-30T01:38:21.143Z,67.57
2018-09-30T01:40:49.158Z,67.39
2018-09-30T01:43:17.175Z,67.58
2018-09-30T01:45:45.171Z,67.38
2018-09-30T01:48:13.168Z,67.87
2018-09-30T01:50:41.179Z,67.75
2018-09-30T01:53:09.191Z,67.64
2018-09-30T01:55:37.196Z,67.58
2018-09-30T01:58:05.404Z,67.91
2018-09-30T02:00:33.422Z,68.01
2018-09-30T02:03:01.416Z,67.89
2018-09-30T02:05:29.427Z,68.19
2018-09-30T02:07:57.447Z,68.18
2018-09-30T02:10:25.451Z,68.00
2018-09-30T02:12:53.475Z,67.78
2018-09-30T02:15:21.487Z,67.85
2018-09-30T02:17:49.531Z,67.93
2018-09-30T02:20:17.551Z,67.88
2018-09-30T02:22:45.564Z,67.88
2018-09-30T02:25:13.577Z,67.97
2018-09-30T02:27:41.731Z,68.10
2018-09-30T02:30:09.739Z,68.07
2018-09-30T02:32:37.736Z,67.67
2018-09-30T02:35:05.741Z,67.82
2018-09-30T02:37:33.755Z,68.04
2018-09-30T02:40:01.771Z,67.66
2018-09-30T02:42:29.816Z,67.45
2018-09-30T02:44:57.819Z,67.13
2018-09-30T02:47:25.843Z,67.02
2018-09-30T02:49:54.048Z,67.82
2018-09-30T02:52:22.049Z,67.82
2018-09-30T02:54:50.060Z,67.72
2018-09-30T02:57:18.076Z,67.62
2018-09-30T02:59:46.075Z,67.25
2018-09-30T03:02:14.093Z,67.55
2018-09-30T03:04:42.108Z,67.69
2018-09-30T03:07:15.515Z,68.13
2018-09-30T03:09:43.751Z,68.08
2018-09-30T03:12:11.948Z,68.56
2018-09-30T03:14:39.976Z,68.07
2018-09-30T03:17:08.023Z,67.72
2018-09-30T03:19:36.340Z,67.39
2018-09-30T03:22:04.559Z,67.59
2018-09-30T03:24:32.570Z,67.34
2018-09-30T03:27:00.584Z,67.80
2018-09-30T03:29:28.616Z,67.47
2018-09-30T03:31:56.995Z,67.84
2018-09-30T03:34:25.004Z,67.72
2018-09-30T03:36:53.024Z,67.40
2018-09-30T03:39:21.060Z,67.92
2018-09-30T03:41:49.072Z,68.03
2018-09-30T03:44:17.358Z,68.27
2018-09-30T03:46:45.463Z,67.58
2018-09-30T03:49:13.506Z,67.55
2018-09-30T03:51:41.691Z,67.45
2018-09-30T03:54:09.696Z,67.98
2018-09-30T03:56:37.916Z,67.74
2018-09-30T03:59:06.344Z,67.73
2018-09-30T04:01:34.477Z,67.64
2018-09-30T04:04:03.030Z,67.52
2018-09-30T04:06:31.228Z,67.84
2018-09-30T04:08:59.244Z,68.09
2018-09-30T04:11:27.249Z,67.66
2018-09-30T04:13:55.429Z,67.79
2018-09-30T04:16:23.455Z,67.42
2018-09-30T04:18:51.876Z,67.56
2018-09-30T04:21:19.892Z,67.92
2018-09-30T04:23:47.910Z,68.16
2018-09-30T04:26:15.936Z,67.83
2018-09-30T04:28:44.164Z,67.86
2018-09-30T04:31:12.227Z,67.95
2018-09-30T04:33:40.252Z,67.81
2018-09-30T04:36:08.269Z,68.23
2018-09-30T04:38:36.277Z,68.34
2018-09-30T04:41:05.131Z,67.99
2018-09-30T04:43:33.133Z,68.04
2018-09-30T04:46:01.275Z,68.28
2018-09-30T04:48:29.280Z,68.15
2018-09-30T04:50:57.408Z,67.53
2018-09-30T04:53:25.779Z,67.86
2018-09-30T04:55:53.977Z,67.83
2018-09-30T04:58:22.739Z,67.56
2018-09-30T05:00:51.803Z,68.13
2018-09-30T05:03:19.927Z,68.12
2018-09-30T05:05:48.060Z,67.71
2018-09-30T05:08:16.355Z,67.37
2018-09-30T05:10:44.407Z,67.42
2018-09-30T05:13:12.411Z,67.86
2018-09-30T05:15:40.595Z,68.17
2018-09-30T05:18:08.636Z,67.88
2018-09-30T05:20:36.730Z,68.41
2018-09-30T05:23:05.044Z,68.67
2018-09-30T05:25:33.200Z,68.20
2018-09-30T05:28:01.200Z,67.88
2018-09-30T05:30:29.607Z,67.85
2018-09-30T05:32:57.700Z,67.74
2018-09-30T05:35:25.752Z,68.09
2018-09-30T05:37:53.780Z,67.89
2018-09-30T05:40:21.794Z,68.17
2018-09-30T05:42:49.951Z,67.79
2018-09-30T05:45:17.976Z,68.02
2018-09-30T05:47:46.093Z,68.18
2018-09-30T05:50:14.209Z,68.22
2018-09-30T05:52:42.221Z,68.00
2018-09-30T05:55:10.234Z,68.40
2018-09-30T05:57:39.397Z,68.16
2018-09-30T06:00:07.302Z,68.24
2018-09-30T06:02:35.331Z,68.37
2018-09-30T06:05:03.333Z,68.93
2018-09-30T06:07:31.576Z,69.00
2018-09-30T06:09:59.660Z,69.03
2018-09-30T06:12:27.682Z,69.04
2018-09-30T06:14:55.806Z,69.13
2018-09-30T06:17:23.859Z,69.20
2018-09-30T06:19:51.980Z,69.64
2018-09-30T06:22:20.000Z,69.65
2018-09-30T06:24:48.076Z,69.69
2018-09-30T06:27:17.371Z,69.78
2018-09-30T06:29:45.472Z,69.84
2018-09-30T06:32:13.622Z,70.20
2018-09-30T06:34:41.497Z,69.75
2018-09-30T06:37:09.965Z,69.92
2018-09-30T06:39:38.032Z,69.99
2018-09-30T06:42:06.155Z,70.14
2018-09-30T06:44:34.167Z,69.96
2018-09-30T06:47:02.552Z,69.99
2018-09-30T06:49:30.561Z,70.08
2018-09-30T06:51:58.704Z,70.55
2018-09-30T06:54:26.743Z,70.61
2018-09-30T06:56:54.789Z,70.65
2018-09-30T06:59:22.916Z,71.32
2018-09-30T07:01:50.935Z,71.11
2018-09-30T07:04:18.958Z,71.32
2018-09-30T07:06:47.415Z,71.42
2018-09-30T07:09:15.441Z,71.26
2018-09-30T07:11:43.466Z,71.07
2018-09-30T07:14:11.469Z,71.29
2018-09-30T07:16:39.732Z,71.11
2018-09-30T07:19:07.715Z,71.44
2018-09-30T07:21:36.152Z,71.71
2018-09-30T07:24:05.023Z,72.07
2018-09-30T07:26:33.048Z,72.09
2018-09-30T07:29:01.088Z,71.72
2018-09-30T07:31:29.478Z,72.09
2018-09-30T07:33:57.740Z,71.83
2018-09-30T07:36:25.880Z,72.30
2018-09-30T07:38:53.888Z,72.26
2018-09-30T07:41:22.772Z,72.16
2018-09-30T07:43:50.960Z,72.26
2018-09-30T07:46:18.978Z,72.42
2018-09-30T07:48:47.001Z,73.06
2018-09-30T07:51:15.151Z,73.56
2018-09-30T07:53:43.224Z,73.42
2018-09-30T07:56:11.235Z,74.12
2018-09-30T07:58:39.253Z,73.85
2018-09-30T08:01:07.736Z,74.01
2018-09-30T08:03:36.428Z,73.46
2018-09-30T08:06:05.158Z,73.88
2018-09-30T08:08:33.167Z,74.07
2018-09-30T08:11:01.187Z,73.48
2018-09-30T08:13:29.367Z,73.78
2018-09-30T08:15:57.407Z,73.62
2018-09-30T08:18:25.424Z,73.85
2018-09-30T08:20:53.952Z,73.24
2018-09-30T08:23:22.104Z,72.34
2018-09-30T08:25:50.336Z,71.68
2018-09-30T08:28:18.555Z,70.64
2018-09-30T08:30:46.816Z,70.25
2018-09-30T08:33:14.799Z,69.92
2018-09-30T08:35:44.911Z,68.54
2018-09-30T08:38:18.310Z,68.22
2018-09-30T08:40:51.775Z,68.66
2018-09-30T08:43:20.008Z,67.83
2018-09-30T08:45:48.120Z,67.52
2018-09-30T08:48:16.116Z,68.13
2018-09-30T08:50:44.144Z,67.91
2018-09-30T08:53:12.268Z,67.33
2018-09-30T08:55:40.393Z,67.78
2018-09-30T08:58:08.365Z,67.50
2018-09-30T09:00:36.391Z,66.54
2018-09-30T09:03:05.697Z,66.36
2018-09-30T09:05:33.854Z,65.52
2018-09-30T09:08:02.131Z,66.02
2018-09-30T09:10:30.188Z,65.57
2018-09-30T09:12:58.221Z,64.75
2018-09-30T09:15:26.511Z,64.71
2018-09-30T09:17:54.540Z,63.96
2018-09-30T09:20:22.594Z,63.45
2018-09-30T09:22:50.658Z,62.41
2018-09-30T09:25:18.643Z,61.99
2018-09-30T09:27:46.667Z,60.22
2018-09-30T09:30:14.676Z,58.03
2018-09-30T09:32:42.711Z,57.62
2018-09-30T09:35:10.954Z,56.75
2018-09-30T09:37:39.468Z,54.01
2018-09-30T09:40:09.243Z,53.68
2018-09-30T09:42:37.395Z,52.37
2018-09-30T09:45:05.562Z,52.37
2018-09-30T09:47:33.940Z,52.75
2018-09-30T09:50:01.956Z,50.96
2018-09-30T09:52:30.107Z,51.20
2018-09-30T09:54:58.356Z,51.43
2018-09-30T09:57:26.392Z,48.86
2018-09-30T09:59:54.412Z,49.28
2018-09-30T10:02:22.437Z,48.77
2018-09-30T10:04:50.472Z,48.35
2018-09-30T10:07:18.491Z,48.33
2018-09-30T10:09:46.522Z,48.41
2018-09-30T10:12:14.523Z,48.18
2018-09-30T10:14:42.904Z,47.49
2018-09-30T10:17:10.927Z,47.13
2018-09-30T10:19:39.016Z,46.21
2018-09-30T10:22:06.993Z,46.28
2018-09-30T10:24:35.007Z,45.45
2018-09-30T10:27:03.282Z,46.64
2018-09-30T10:29:31.338Z,46.24
2018-09-30T10:31:59.688Z,44.17
2018-09-30T10:34:27.779Z,44.29
2018-09-30T10:36:55.809Z,45.02
2018-09-30T10:39:24.265Z,43.83
2018-09-30T10:41:52.249Z,42.11
2018-09-30T10:44:20.268Z,41.92
2018-09-30T10:46:48.291Z,40.47
2018-09-30T10:49:16.323Z,40.97
2018-09-30T10:51:44.423Z,41.25
2018-09-30T10:54:12.531Z,40.72
2018-09-30T10:56:40.861Z,39.43
2018-09-30T10:59:09.116Z,38.90
2018-09-30T11:01:37.136Z,39.57
2018-09-30T11:04:05.155Z,38.96
2018-09-30T11:06:33.212Z,39.08
2018-09-30T11:09:01.236Z,38.13
2018-09-30T11:11:29.271Z,36.49
2018-09-30T11:13:57.291Z,35.86
2018-09-30T11:16:25.322Z,36.91
2018-09-30T11:18:53.357Z,36.93
2018-09-30T11:21:21.371Z,36.98
2018-09-30T11:23:49.379Z,36.56
2018-09-30T11:26:17.407Z,36.68
2018-09-30T11:28:45.427Z,37.16
2018-09-30T11:31:13.451Z,35.89
2018-09-30T11:33:41.470Z,35.97
2018-09-30T11:36:09.486Z,36.23
2018-09-30T11:38:37.507Z,35.54
2018-09-30T11:41:05.556Z,35.88
2018-09-30T11:43:33.748Z,35.28
2018-09-30T11:46:01.825Z,35.16
2018-09-30T11:48:29.852Z,34.71
2018-09-30T11:50:57.891Z,35.24
2018-09-30T11:53:25.924Z,35.51
2018-09-30T11:55:53.979Z,35.54
2018-09-30T11:58:22.700Z,36.40
2018-09-30T12:00:50.851Z,35.91
2018-09-30T12:03:18.863Z,36.57
2018-09-30T12:05:47.899Z,36.88
2018-09-30T12:08:15.916Z,36.73
2018-09-30T12:10:44.001Z,37.18
2018-09-30T12:13:12.019Z,36.61
2018-09-30T12:15:40.183Z,37.56
2018-09-30T12:18:08.203Z,37.84
2018-09-30T12:20:36.224Z,37.18
2018-09-30T12:23:05.911Z,37.46
2018-09-30T12:25:33.927Z,37.54
2018-09-30T12:28:01.956Z,36.53
2018-09-30T12:30:29.991Z,37.56
2018-09-30T12:32:58.048Z,37.26
2018-09-30T12:35:26.068Z,37.81
2018-09-30T12:37:54.236Z,37.30
2018-09-30T12:40:22.260Z,37.96
2018-09-30T12:42:50.276Z,37.89
2018-09-30T12:45:18.300Z,38.37
2018-09-30T12:47:46.308Z,38.01
2018-09-30T12:50:14.343Z,37.91
2018-09-30T12:52:42.995Z,37.77
2018-09-30T12:55:11.003Z,38.37
2018-09-30T12:57:39.019Z,38.14
2018-09-30T13:00:07.924Z,38.71
2018-09-30T13:02:35.947Z,38.79
2018-09-30T13:05:03.959Z,38.68
2018-09-30T13:07:31.976Z,39.31
2018-09-30T13:10:00.145Z,39.83
2018-09-30T13:12:28.165Z,39.55
2018-09-30T13:14:56.183Z,39.25
2018-09-30T13:17:24.215Z,39.82
2018-09-30T13:19:52.227Z,40.83
2018-09-30T13:22:20.257Z,40.10
2018-09-30T13:24:48.279Z,40.52
2018-09-30T13:27:16.284Z,40.54
2018-09-30T13:29:44.323Z,40.93
2018-09-30T13:32:12.343Z,40.83
2018-09-30T13:34:40.367Z,41.41
2018-09-30T13:37:08.377Z,41.71
2018-09-30T13:39:36.465Z,42.33
2018-09-30T13:42:04.663Z,41.58
2018-09-30T13:44:32.667Z,41.32
2018-09-30T13:47:00.874Z,41.48
2018-09-30T13:49:29.528Z,41.42
2018-09-30T13:51:57.544Z,41.20
2018-09-30T13:54:25.711Z,40.81
2018-09-30T13:56:53.720Z,41.43
2018-09-30T13:59:22.257Z,40.82
2018-09-30T14:01:50.287Z,41.04
2018-09-30T14:04:18.307Z,41.01
2018-09-30T14:06:46.357Z,41.40
2018-09-30T14:09:14.478Z,40.93
2018-09-30T14:11:42.492Z,41.29
2018-09-30T14:14:10.496Z,41.90
2018-09-30T14:16:38.588Z,41.85
2018-09-30T14:19:06.647Z,41.37
2018-09-30T14:21:34.659Z,41.72
2018-09-30T14:24:02.688Z,41.65
2018-09-30T14:26:31.247Z,42.11
2018-09-30T14:28:59.283Z,42.22
2018-09-30T14:31:27.325Z,42.91
2018-09-30T14:36:35.440Z,42.54
2018-09-30T14:39:05.016Z,42.80
2018-09-30T14:41:33.032Z,42.87
2018-09-30T14:44:01.037Z,43.03
2018-09-30T14:46:29.043Z,43.56
2018-09-30T14:48:57.056Z,43.87
2018-09-30T14:51:25.063Z,44.22
2018-09-30T14:53:53.115Z,44.83
2018-09-30T14:56:21.090Z,44.65
2018-09-30T14:58:49.102Z,44.99
2018-09-30T15:01:17.131Z,45.04
2018-09-30T15:03:45.184Z,45.26
2018-09-30T15:06:13.223Z,45.43
2018-09-30T15:08:41.248Z,45.06
2018-09-30T15:11:09.328Z,45.34
2018-09-30T15:13:37.344Z,45.91
2018-09-30T15:16:05.356Z,45.84
2018-09-30T15:18:33.538Z,45.80
2018-09-30T15:21:01.748Z,46.38
2018-09-30T15:23:29.760Z,47.00
2018-09-30T15:25:57.788Z,47.05
2018-09-30T15:28:25.826Z,46.46
2018-09-30T15:30:53.863Z,46.18
2018-09-30T15:33:22.110Z,46.48
2018-09-30T15:35:50.127Z,45.94
2018-09-30T15:38:18.151Z,46.73
2018-09-30T15:40:46.579Z,46.98
2018-09-30T15:43:14.749Z,46.56
2018-09-30T15:45:42.777Z,46.95
2018-09-30T15:48:10.792Z,46.77
2018-09-30T15:50:38.971Z,46.71
2018-09-30T15:53:07.178Z,47.08
2018-09-30T15:55:35.198Z,47.20
2018-09-30T15:58:03.235Z,46.59
2018-09-30T16:00:31.257Z,46.36
2018-09-30T16:02:59.280Z,47.08
2018-09-30T16:05:27.305Z,46.37
2018-09-30T16:07:55.444Z,47.07
2018-09-30T16:10:23.475Z,46.25
2018-09-30T16:12:51.859Z,45.38
2018-09-30T16:15:19.821Z,45.86
2018-09-30T16:17:47.854Z,46.07
2018-09-30T16:20:15.883Z,46.27
2018-09-30T16:22:43.919Z,46.23
2018-09-30T16:25:12.038Z,46.50
2018-09-30T16:27:40.068Z,46.57
2018-09-30T16:30:08.092Z,46.03
2018-09-30T16:32:36.148Z,47.16
2018-09-30T16:35:05.142Z,47.06
2018-09-30T16:37:33.150Z,46.89
2018-09-30T16:40:01.814Z,46.44
2018-09-30T16:42:29.827Z,47.00
2018-09-30T16:44:57.896Z,47.24
2018-09-30T16:47:25.944Z,48.46
2018-09-30T16:49:54.012Z,48.42
2018-09-30T16:52:22.052Z,48.32
2018-09-30T16:54:50.076Z,48.35
2018-09-30T16:57:18.103Z,48.50
2018-09-30T16:59:46.167Z,48.61
2018-09-30T17:02:14.200Z,48.27
2018-09-30T17:04:42.227Z,48.71
2018-09-30T17:07:10.276Z,49.15
2018-09-30T17:09:38.300Z,49.20
2018-09-30T17:12:06.476Z,49.48
2018-09-30T17:14:34.492Z,49.20
2018-09-30T17:17:02.524Z,49.77
2018-09-30T17:19:30.556Z,50.41
2018-09-30T17:21:58.595Z,51.04
2018-09-30T17:24:27.276Z,50.52
2018-09-30T17:26:55.443Z,50.65
2018-09-30T17:29:23.488Z,50.45
2018-09-30T17:31:51.567Z,51.62
2018-09-30T17:34:19.756Z,52.04
2018-09-30T17:36:47.775Z,51.54
2018-09-30T17:39:15.804Z,52.04
2018-09-30T17:41:44.528Z,51.78
2018-09-30T17:44:12.544Z,52.25
2018-09-30T17:46:40.580Z,52.16
2018-09-30T17:49:08.632Z,52.73
2018-09-30T17:51:36.676Z,52.99
2018-09-30T17:54:04.784Z,52.76
2018-09-30T17:56:32.836Z,52.85
2018-09-30T17:59:01.188Z,53.64
2018-09-30T18:01:29.208Z,54.11
2018-09-30T18:03:57.235Z,54.12
2018-09-30T18:06:25.243Z,54.34
2018-09-30T18:08:53.298Z,54.06
2018-09-30T18:11:21.332Z,54.77
2018-09-30T18:13:49.352Z,55.14
2018-09-30T18:16:17.761Z,54.58
2018-09-30T18:18:45.789Z,54.96
2018-09-30T18:21:13.816Z,54.99
2018-09-30T18:23:41.910Z,55.76
2018-09-30T18:26:09.893Z,54.83
2018-09-30T18:28:37.916Z,55.87
2018-09-30T18:31:05.999Z,55.89
2018-09-30T18:33:34.028Z,55.81
2018-09-30T18:36:02.257Z,55.90
2018-09-30T18:38:30.276Z,55.88
2018-09-30T18:40:58.299Z,56.29
2018-09-30T18:43:26.336Z,56.25
2018-09-30T18:45:54.347Z,56.61
2018-09-30T18:48:22.385Z,56.61
2018-09-30T18:50:50.424Z,57.36
2018-09-30T18:53:18.452Z,57.34
2018-09-30T18:55:46.541Z,57.23
2018-09-30T18:58:14.570Z,56.73
2018-09-30T19:00:42.595Z,56.53
2018-09-30T19:03:10.647Z,57.16
2018-09-30T19:05:38.681Z,56.74
2018-09-30T19:08:06.740Z,56.98
2018-09-30T19:10:35.156Z,57.22
2018-09-30T19:13:03.202Z,57.62
2018-09-30T19:15:31.252Z,57.32
2018-09-30T19:17:59.291Z,57.42
2018-09-30T19:20:27.320Z,58.15
2018-09-30T19:22:55.402Z,58.53
2018-09-30T19:25:23.375Z,58.86
2018-09-30T19:27:51.444Z,58.34
2018-09-30T19:30:19.487Z,58.53
2018-09-30T19:32:47.592Z,59.27
2018-09-30T19:35:15.692Z,59.11
2018-09-30T19:37:43.719Z,59.18
2018-09-30T19:40:11.747Z,59.90
2018-09-30T19:42:39.775Z,60.16
2018-09-30T19:45:14.582Z,59.68
2018-09-30T19:47:42.624Z,59.99
2018-09-30T19:50:10.851Z,60.01
2018-09-30T19:52:39.039Z,60.63
2018-09-30T19:55:07.077Z,60.37
2018-09-30T19:57:35.110Z,60.73
2018-09-30T20:00:03.323Z,60.78
2018-09-30T20:02:31.348Z,61.08
2018-09-30T20:04:59.396Z,61.35
2018-09-30T20:07:27.415Z,61.43
2018-09-30T20:09:55.456Z,61.00
2018-09-30T20:12:23.483Z,61.49
2018-09-30T20:14:51.508Z,61.19
2018-09-30T20:17:19.547Z,61.51
2018-09-30T20:19:47.568Z,61.47
2018-09-30T20:22:15.600Z,61.75
2018-09-30T20:24:44.517Z,62.21
2018-09-30T20:27:12.520Z,61.62
2018-09-30T20:29:40.612Z,62.03
2018-09-30T20:32:08.655Z,62.41
2018-09-30T20:34:43.316Z,62.49
2018-09-30T20:37:11.440Z,62.26
2018-09-30T20:39:39.424Z,62.78
2018-09-30T20:42:07.447Z,63.04
2018-09-30T20:44:35.488Z,63.76
2018-09-30T20:47:04.540Z,63.66
2018-09-30T20:49:32.580Z,64.06
2018-09-30T20:52:00.632Z,63.79
2018-09-30T20:54:28.773Z,63.95
2018-09-30T20:56:56.967Z,63.70
2018-09-30T20:59:24.988Z,64.10
2018-09-30T21:01:53.042Z,64.40
2018-09-30T21:04:21.239Z,63.89
2018-09-30T21:06:49.282Z,64.45
2018-09-30T21:09:18.672Z,64.35
2018-09-30T21:11:46.963Z,65.12
2018-09-30T21:14:31.899Z,65.11
2018-09-30T21:16:59.919Z,65.04
2018-09-30T21:19:27.967Z,65.70
2018-09-30T21:21:56.008Z,65.48
2018-09-30T21:24:24.191Z,65.75
2018-09-30T21:26:52.207Z,65.71
2018-09-30T21:29:20.220Z,66.11
2018-09-30T21:31:48.263Z,66.16
2018-09-30T21:34:16.370Z,66.28
2018-09-30T21:36:44.332Z,66.84
2018-09-30T21:39:12.491Z,66.49
2018-09-30T21:41:40.515Z,66.73
2018-09-30T21:44:08.767Z,66.42
2018-09-30T21:46:37.158Z,66.71
2018-09-30T21:49:05.226Z,66.93
2018-09-30T21:51:33.452Z,67.07
2018-09-30T21:54:01.501Z,66.56
2018-09-30T21:56:29.714Z,66.82
2018-09-30T21:58:57.732Z,67.27
2018-09-30T22:01:25.845Z,66.72
2018-09-30T22:03:53.804Z,66.33
2018-09-30T22:06:21.843Z,66.91
2018-09-30T22:08:49.889Z,66.66
2018-09-30T22:11:17.919Z,66.88
2018-09-30T22:13:45.951Z,66.67
2018-09-30T22:16:13.974Z,67.10
2018-09-30T22:18:41.995Z,67.15
2018-09-30T22:21:10.024Z,67.73
2018-09-30T22:23:38.056Z,67.58
2018-09-30T22:26:06.088Z,67.61
2018-09-30T22:28:34.117Z,67.42
2018-09-30T22:31:02.144Z,67.68
2018-09-30T22:33:30.188Z,67.88
2018-09-30T22:35:58.232Z,67.83
2018-09-30T22:38:26.256Z,67.46
2018-09-30T22:40:54.269Z,68.13
2018-09-30T22:43:22.311Z,67.16
2018-09-30T22:45:50.367Z,68.14
2018-09-30T22:48:18.396Z,67.85
2018-09-30T22:50:47.423Z,68.21
2018-09-30T22:53:15.491Z,67.79
2018-09-30T22:55:43.800Z,68.04
2018-09-30T22:58:11.823Z,67.57
2018-09-30T23:00:39.844Z,67.93
2018-09-30T23:03:07.867Z,67.52
2018-09-30T23:05:35.872Z,67.96
2018-09-30T23:08:04.623Z,68.26
2018-09-30T23:10:32.636Z,68.08
2018-09-30T23:13:00.664Z,68.07
2018-09-30T23:15:28.696Z,67.86
2018-09-30T23:17:56.703Z,67.94
2018-09-30T23:20:24.729Z,67.99
2018-09-30T23:22:52.784Z,68.35
2018-09-30T23:25:20.814Z,67.58
2018-09-30T23:27:48.828Z,68.21
2018-09-30T23:30:17.003Z,67.49
2018-09-30T23:32:45.021Z,68.13
2018-09-30T23:35:13.028Z,68.53
2018-09-30T23:37:41.055Z,68.17
2018-09-30T23:40:09.080Z,68.31
2018-09-30T23:42:37.239Z,67.79
2018-09-30T23:45:05.496Z,68.01
2018-09-30T23:47:33.519Z,67.67
2018-09-30T23:50:01.553Z,68.50
2018-09-30T23:52:29.672Z,67.75
2018-09-30T23:54:57.694Z,68.04
2018-09-30T23:57:25.736Z,68.11
2018-09-30T23:59:53.815Z,68.00
